createdAt,value
2024-05-09T00:00:41.050Z,17.36
2024-05-09T00:01:38.643Z,16.85
2024-05-09T00:02:35.617Z,17.39
2024-05-09T00:03:32.557Z,17.23
2024-05-09T00:04:29.480Z,17.42
2024-05-09T00:05:26.514Z,17.13
2024-05-09T00:06:23.388Z,17.25
2024-05-09T00:07:20.638Z,17.22
2024-05-09T00:08:17.658Z,17.38
2024-05-09T00:09:14.587Z,17.40
2024-05-09T00:10:18.315Z,17.48
2024-05-09T00:11:23.200Z,17.48
2024-05-09T00:12:20.290Z,17.31
2024-05-09T00:13:17.308Z,17.42
2024-05-09T00:14:14.552Z,17.48
2024-05-09T00:15:11.421Z,17.31
2024-05-09T00:16:08.335Z,17.27
2024-05-09T00:17:05.336Z,17.14
2024-05-09T00:18:03.248Z,17.18
2024-05-09T00:19:00.601Z,17.34
2024-05-09T00:19:57.503Z,17.41
2024-05-09T00:20:54.370Z,17.27
2024-05-09T00:21:51.222Z,17.22
2024-05-09T00:22:48.185Z,17.42
2024-05-09T00:23:45.216Z,17.24
2024-05-09T00:24:42.177Z,17.17
2024-05-09T00:25:39.357Z,17.10
2024-05-09T00:26:36.347Z,17.48
2024-05-09T00:27:33.214Z,17.36
2024-05-09T00:28:30.062Z,17.26
2024-05-09T00:29:27.188Z,17.24
2024-05-09T00:30:31.471Z,17.18
2024-05-09T00:31:31.968Z,17.38
2024-05-09T00:32:28.981Z,17.41
2024-05-09T00:33:26.191Z,17.48
2024-05-09T00:34:24.015Z,17.25
2024-05-09T00:35:21.360Z,17.42
2024-05-09T00:36:18.267Z,17.15
2024-05-09T00:37:15.151Z,17.15
2024-05-09T00:38:12.027Z,17.25
2024-05-09T00:39:08.886Z,17.03
2024-05-09T00:40:09.541Z,17.10
2024-05-09T00:41:08.905Z,17.27
2024-05-09T00:42:05.782Z,17.17
2024-05-09T00:43:02.773Z,17.45
2024-05-09T00:44:00.037Z,17.22
2024-05-09T00:44:56.970Z,17.11
2024-05-09T00:45:56.951Z,17.31
2024-05-09T00:46:55.468Z,17.34
2024-05-09T00:47:52.650Z,17.46
2024-05-09T00:48:49.917Z,17.48
2024-05-09T00:49:47.082Z,17.51
2024-05-09T00:50:45.392Z,17.37
2024-05-09T00:51:43.116Z,17.51
2024-05-09T00:52:40.856Z,17.33
2024-05-09T00:53:37.880Z,17.42
2024-05-09T00:54:35.189Z,17.27
2024-05-09T00:55:32.289Z,17.06
2024-05-09T00:56:29.439Z,16.96
2024-05-09T00:57:27.842Z,16.89
2024-05-09T00:58:27.679Z,16.85
2024-05-09T00:59:25.123Z,17.02
2024-05-09T01:00:30.542Z,17.04
2024-05-09T01:01:32.997Z,17.19
2024-05-09T01:02:30.072Z,17.03
2024-05-09T01:03:27.666Z,17.29
2024-05-09T01:04:24.879Z,17.32
2024-05-09T01:05:21.771Z,17.02
2024-05-09T01:06:20.919Z,17.25
2024-05-09T01:07:17.841Z,17.15
2024-05-09T01:08:14.921Z,17.20
2024-05-09T01:09:11.969Z,16.98
2024-05-09T01:10:14.060Z,17.29
2024-05-09T01:11:18.498Z,17.34
2024-05-09T01:12:15.544Z,17.25
2024-05-09T01:13:12.660Z,17.40
2024-05-09T01:14:09.695Z,17.32
2024-05-09T01:15:06.919Z,17.12
2024-05-09T01:16:04.924Z,17.16
2024-05-09T01:17:01.851Z,17.05
2024-05-09T01:18:01.682Z,17.22
2024-05-09T01:18:59.600Z,16.98
2024-05-09T01:19:56.589Z,16.80
2024-05-09T01:20:53.531Z,17.02
2024-05-09T01:21:50.406Z,16.91
2024-05-09T01:22:47.971Z,16.92
2024-05-09T01:23:44.871Z,17.03
2024-05-09T01:24:41.738Z,16.94
2024-05-09T01:25:38.609Z,16.94
2024-05-09T01:26:35.553Z,16.96
2024-05-09T01:27:32.453Z,16.57
2024-05-09T01:28:29.343Z,16.69
2024-05-09T01:29:26.529Z,16.68
2024-05-09T01:30:33.880Z,16.77
2024-05-09T01:31:33.067Z,16.86
2024-05-09T01:32:30.031Z,16.65
2024-05-09T01:33:27.376Z,16.34
2024-05-09T01:34:25.112Z,16.76
2024-05-09T01:35:23.699Z,16.77
2024-05-09T01:36:20.680Z,16.62
2024-05-09T01:37:17.519Z,16.86
2024-05-09T01:38:17.412Z,16.84
2024-05-09T01:39:14.484Z,16.81
2024-05-09T01:40:15.298Z,16.58
2024-05-09T01:41:15.466Z,16.57
2024-05-09T01:42:12.416Z,16.70
2024-05-09T01:43:10.716Z,16.56
2024-05-09T01:44:08.589Z,16.62
2024-05-09T01:45:05.806Z,16.78
2024-05-09T01:46:02.700Z,16.70
2024-05-09T01:46:59.607Z,16.76
2024-05-09T01:47:56.724Z,16.68
2024-05-09T01:48:53.794Z,16.86
2024-05-09T01:49:50.688Z,16.60
2024-05-09T01:50:47.660Z,16.75
2024-05-09T01:51:44.574Z,16.56
2024-05-09T01:52:41.432Z,16.82
2024-05-09T01:53:38.672Z,16.91
2024-05-09T01:54:37.299Z,16.78
2024-05-09T01:55:34.209Z,16.55
2024-05-09T01:56:31.144Z,16.46
2024-05-09T01:57:28.056Z,16.53
2024-05-09T01:58:25.084Z,16.51
2024-05-09T01:59:21.951Z,16.53
2024-05-09T02:00:26.371Z,16.23
2024-05-09T02:01:31.277Z,16.56
2024-05-09T02:02:48.145Z,16.48
2024-05-09T02:03:46.896Z,16.32
2024-05-09T02:04:47.754Z,16.50
2024-05-09T02:05:46.748Z,16.30
2024-05-09T02:06:44.272Z,16.42
2024-05-09T02:07:41.142Z,16.42
2024-05-09T02:08:38.154Z,16.60
2024-05-09T02:09:35.064Z,16.78
2024-05-09T02:10:33.148Z,16.27
2024-05-09T02:11:30.524Z,16.54
2024-05-09T02:12:27.469Z,16.49
2024-05-09T02:13:24.364Z,16.56
2024-05-09T02:14:21.351Z,16.48
2024-05-09T02:15:18.239Z,16.31
2024-05-09T02:16:15.174Z,16.34
2024-05-09T02:17:12.119Z,16.48
2024-05-09T02:18:10.293Z,16.37
2024-05-09T02:19:07.763Z,16.34
2024-05-09T02:20:06.229Z,16.44
2024-05-09T02:21:03.440Z,16.47
2024-05-09T02:22:00.402Z,16.33
2024-05-09T02:22:57.642Z,16.49
2024-05-09T02:23:54.576Z,16.35
2024-05-09T02:24:51.675Z,16.28
2024-05-09T02:25:48.661Z,16.41
2024-05-09T02:26:45.594Z,16.47
2024-05-09T02:27:42.491Z,16.28
2024-05-09T02:28:39.378Z,16.17
2024-05-09T02:29:36.275Z,16.20
2024-05-09T02:30:40.127Z,16.17
2024-05-09T02:31:38.672Z,16.12
2024-05-09T02:32:35.616Z,16.09
2024-05-09T02:33:33.146Z,16.08
2024-05-09T02:34:30.315Z,16.17
2024-05-09T02:35:27.400Z,16.04
2024-05-09T02:36:24.423Z,16.13
2024-05-09T02:37:21.267Z,16.28
2024-05-09T02:38:18.141Z,16.18
2024-05-09T02:39:15.029Z,16.44
2024-05-09T02:40:14.873Z,16.46
2024-05-09T02:41:15.080Z,16.48
2024-05-09T02:42:11.932Z,16.47
2024-05-09T02:43:12.666Z,16.31
2024-05-09T02:44:10.067Z,16.43
2024-05-09T02:45:07.412Z,16.49
2024-05-09T02:46:04.382Z,16.44
2024-05-09T02:47:01.302Z,16.54
2024-05-09T02:47:58.552Z,16.41
2024-05-09T02:48:55.695Z,16.57
2024-05-09T02:49:52.606Z,16.35
2024-05-09T02:50:49.642Z,16.17
2024-05-09T02:51:46.498Z,16.23
2024-05-09T02:52:43.355Z,16.17
2024-05-09T02:53:40.284Z,16.10
2024-05-09T02:54:37.185Z,16.17
2024-05-09T02:55:34.783Z,16.13
2024-05-09T02:56:31.705Z,16.07
2024-05-09T02:57:28.557Z,16.21
2024-05-09T02:58:25.385Z,15.83
2024-05-09T02:59:22.619Z,16.05
2024-05-09T03:00:26.270Z,16.14
2024-05-09T03:01:31.348Z,16.28
2024-05-09T03:02:30.962Z,15.98
2024-05-09T03:03:28.104Z,16.07
2024-05-09T03:04:25.176Z,16.01
2024-05-09T03:05:22.161Z,16.08
2024-05-09T03:06:19.043Z,16.03
2024-05-09T03:07:17.777Z,16.18
2024-05-09T03:08:15.878Z,16.08
2024-05-09T03:09:12.769Z,16.06
2024-05-09T03:10:18.004Z,15.70
2024-05-09T03:11:23.116Z,15.56
2024-05-09T03:12:20.085Z,15.58
2024-05-09T03:13:17.068Z,15.53
2024-05-09T03:14:17.438Z,15.65
2024-05-09T03:15:14.391Z,15.85
2024-05-09T03:16:11.252Z,15.82
2024-05-09T03:17:08.157Z,15.92
2024-05-09T03:18:08.875Z,16.00
2024-05-09T03:19:06.002Z,16.22
2024-05-09T03:20:05.221Z,16.06
2024-05-09T03:21:03.996Z,16.06
2024-05-09T03:22:00.925Z,16.12
2024-05-09T03:22:57.827Z,16.15
2024-05-09T03:23:54.740Z,16.21
2024-05-09T03:24:51.627Z,15.98
2024-05-09T03:25:48.522Z,15.93
2024-05-09T03:26:45.471Z,16.11
2024-05-09T03:27:42.358Z,16.20
2024-05-09T03:28:39.502Z,16.22
2024-05-09T03:29:37.532Z,16.09
2024-05-09T03:30:40.801Z,16.24
2024-05-09T03:31:39.803Z,16.17
2024-05-09T03:32:36.751Z,15.99
2024-05-09T03:33:34.229Z,16.19
2024-05-09T03:34:31.271Z,16.10
2024-05-09T03:35:28.270Z,15.83
2024-05-09T03:36:25.201Z,16.12
2024-05-09T03:37:22.068Z,16.21
2024-05-09T03:38:19.002Z,16.18
2024-05-09T03:39:15.896Z,16.22
2024-05-09T03:40:20.478Z,16.17
2024-05-09T03:41:21.169Z,16.24
2024-05-09T03:42:18.044Z,16.35
2024-05-09T03:43:15.577Z,16.20
2024-05-09T03:44:12.573Z,16.11
2024-05-09T03:45:09.457Z,16.19
2024-05-09T03:46:06.299Z,16.10
2024-05-09T03:47:03.364Z,16.22
2024-05-09T03:48:00.464Z,15.89
2024-05-09T03:48:57.805Z,16.12
2024-05-09T03:49:54.712Z,16.05
2024-05-09T03:50:51.758Z,15.91
2024-05-09T03:51:48.664Z,15.67
2024-05-09T03:52:45.559Z,15.91
2024-05-09T03:53:42.485Z,16.07
2024-05-09T03:54:47.582Z,16.08
2024-05-09T03:55:44.525Z,16.26
2024-05-09T03:56:41.458Z,16.10
2024-05-09T03:57:38.386Z,16.38
2024-05-09T03:58:35.293Z,16.20
2024-05-09T03:59:32.306Z,16.22
2024-05-09T04:00:36.907Z,16.14
2024-05-09T04:01:35.804Z,16.15
2024-05-09T04:02:32.870Z,16.29
2024-05-09T04:03:29.985Z,16.19
2024-05-09T04:04:27.078Z,15.97
2024-05-09T04:05:25.783Z,15.91
2024-05-09T04:06:26.846Z,15.59
2024-05-09T04:07:23.721Z,15.78
2024-05-09T04:08:20.629Z,15.79
2024-05-09T04:09:17.501Z,15.79
2024-05-09T04:10:23.667Z,16.18
2024-05-09T04:11:24.838Z,16.13
2024-05-09T04:12:21.777Z,16.12
2024-05-09T04:13:18.686Z,16.09
2024-05-09T04:14:15.578Z,16.06
2024-05-09T04:15:13.688Z,16.23
2024-05-09T04:16:11.341Z,16.36
2024-05-09T04:17:08.240Z,16.08
2024-05-09T04:18:05.694Z,16.12
2024-05-09T04:19:02.954Z,16.26
2024-05-09T04:19:59.945Z,16.10
2024-05-09T04:20:56.924Z,16.11
2024-05-09T04:21:53.840Z,16.18
2024-05-09T04:22:50.762Z,15.87
2024-05-09T04:23:47.710Z,16.04
2024-05-09T04:24:44.667Z,16.15
2024-05-09T04:25:44.060Z,15.96
2024-05-09T04:26:41.357Z,16.25
2024-05-09T04:27:38.250Z,16.41
2024-05-09T04:28:35.245Z,16.49
2024-05-09T04:29:32.365Z,16.58
2024-05-09T04:30:36.957Z,16.76
2024-05-09T04:31:36.896Z,16.70
2024-05-09T04:32:33.939Z,16.62
2024-05-09T04:33:31.131Z,16.70
2024-05-09T04:34:28.221Z,16.52
2024-05-09T04:35:25.310Z,16.41
2024-05-09T04:36:22.256Z,16.60
2024-05-09T04:37:19.081Z,16.56
2024-05-09T04:38:16.238Z,16.50
2024-05-09T04:39:13.295Z,16.58
2024-05-09T04:40:20.510Z,16.34
2024-05-09T04:41:21.186Z,16.57
2024-05-09T04:42:18.084Z,16.54
2024-05-09T04:43:17.534Z,16.60
2024-05-09T04:44:14.497Z,16.61
2024-05-09T04:45:11.394Z,16.53
2024-05-09T04:46:08.267Z,16.58
2024-05-09T04:47:05.258Z,16.50
2024-05-09T04:48:02.511Z,16.42
2024-05-09T04:48:59.765Z,16.64
2024-05-09T04:49:56.709Z,16.63
2024-05-09T04:50:53.600Z,16.65
2024-05-09T04:51:50.502Z,16.64
2024-05-09T04:52:47.440Z,16.54
2024-05-09T04:53:44.579Z,16.49
2024-05-09T04:54:41.501Z,16.73
2024-05-09T04:55:39.406Z,16.72
2024-05-09T04:56:36.903Z,16.46
2024-05-09T04:57:33.818Z,16.83
2024-05-09T04:58:30.659Z,16.74
2024-05-09T04:59:27.639Z,16.86
2024-05-09T05:00:32.524Z,16.84
2024-05-09T05:01:33.494Z,16.76
2024-05-09T05:02:31.877Z,16.76
2024-05-09T05:03:29.148Z,16.70
2024-05-09T05:04:26.244Z,16.59
2024-05-09T05:05:23.152Z,16.74
2024-05-09T05:06:20.398Z,16.95
2024-05-09T05:07:17.230Z,16.74
2024-05-09T05:08:17.222Z,16.56
2024-05-09T05:09:15.126Z,16.78
2024-05-09T05:10:17.711Z,16.55
2024-05-09T05:11:18.469Z,16.69
2024-05-09T05:12:34.012Z,16.46
2024-05-09T05:13:31.856Z,16.58
2024-05-09T05:14:28.902Z,16.42
2024-05-09T05:15:25.817Z,16.78
2024-05-09T05:16:22.668Z,16.82
2024-05-09T05:17:19.639Z,16.79
2024-05-09T05:18:16.967Z,16.36
2024-05-09T05:19:16.949Z,16.74
2024-05-09T05:20:17.978Z,16.59
2024-05-09T05:21:21.201Z,16.89
2024-05-09T05:22:18.159Z,16.95
2024-05-09T05:23:16.886Z,16.97
2024-05-09T05:24:13.828Z,16.86
2024-05-09T05:25:10.737Z,16.56
2024-05-09T05:26:07.628Z,16.63
2024-05-09T05:27:04.654Z,16.43
2024-05-09T05:28:01.528Z,16.44
2024-05-09T05:28:58.437Z,16.37
2024-05-09T05:29:55.296Z,16.66
2024-05-09T05:30:52.138Z,16.59
2024-05-09T05:31:49.109Z,16.70
2024-05-09T05:32:46.157Z,16.70
2024-05-09T05:33:43.279Z,16.80
2024-05-09T05:34:40.204Z,16.75
2024-05-09T05:35:37.392Z,16.91
2024-05-09T05:36:34.245Z,16.89
2024-05-09T05:37:31.125Z,16.57
2024-05-09T05:38:28.649Z,16.64
2024-05-09T05:39:25.687Z,16.85
2024-05-09T05:40:31.997Z,16.59
2024-05-09T05:41:32.828Z,16.91
2024-05-09T05:42:29.741Z,16.57
2024-05-09T05:43:26.783Z,16.57
2024-05-09T05:44:23.658Z,16.62
2024-05-09T05:45:20.577Z,16.57
2024-05-09T05:46:17.492Z,16.57
2024-05-09T05:47:14.588Z,16.69
2024-05-09T05:48:13.614Z,16.81
2024-05-09T05:49:11.005Z,16.83
2024-05-09T05:50:20.457Z,16.52
2024-05-09T05:51:23.818Z,16.49
2024-05-09T05:52:20.662Z,16.58
2024-05-09T05:53:17.556Z,16.41
2024-05-09T05:54:14.468Z,16.69
2024-05-09T05:55:11.351Z,16.72
2024-05-09T05:56:08.243Z,16.60
2024-05-09T05:57:05.178Z,16.99
2024-05-09T05:58:02.985Z,16.96
2024-05-09T05:58:59.925Z,17.02
2024-05-09T05:59:56.767Z,16.95
2024-05-09T06:00:53.885Z,16.79
2024-05-09T06:01:51.134Z,16.95
2024-05-09T06:02:48.231Z,16.85
2024-05-09T06:03:45.302Z,17.12
2024-05-09T06:04:42.797Z,16.77
2024-05-09T06:05:40.475Z,16.77
2024-05-09T06:06:37.838Z,16.88
2024-05-09T06:07:34.721Z,16.78
2024-05-09T06:08:31.573Z,17.06
2024-05-09T06:09:28.460Z,17.15
2024-05-09T06:10:30.197Z,17.08
2024-05-09T06:11:34.221Z,17.27
2024-05-09T06:12:31.134Z,17.29
2024-05-09T06:13:28.011Z,17.41
2024-05-09T06:14:24.871Z,17.33
2024-05-09T06:15:21.782Z,17.40
2024-05-09T06:16:18.646Z,17.62
2024-05-09T06:17:15.632Z,17.66
2024-05-09T06:18:14.364Z,17.32
2024-05-09T06:19:11.549Z,17.34
2024-05-09T06:20:16.626Z,17.05
2024-05-09T06:21:20.411Z,17.03
2024-05-09T06:22:17.491Z,17.39
2024-05-09T06:23:14.696Z,17.53
2024-05-09T06:24:12.091Z,17.48
2024-05-09T06:25:08.979Z,17.80
2024-05-09T06:26:05.937Z,17.63
2024-05-09T06:27:03.884Z,17.64
2024-05-09T06:28:01.467Z,17.68
2024-05-09T06:29:01.531Z,17.45
2024-05-09T06:29:58.494Z,17.34
2024-05-09T06:30:55.375Z,17.66
2024-05-09T06:31:52.409Z,17.81
2024-05-09T06:32:49.497Z,17.83
2024-05-09T06:33:46.650Z,17.92
2024-05-09T06:34:43.765Z,18.01
2024-05-09T06:35:41.117Z,17.87
2024-05-09T06:36:41.552Z,17.89
2024-05-09T06:37:38.426Z,17.99
2024-05-09T06:38:35.360Z,17.91
2024-05-09T06:39:32.348Z,17.94
2024-05-09T06:40:37.032Z,17.56
2024-05-09T06:41:36.735Z,17.71
2024-05-09T06:42:33.610Z,17.48
2024-05-09T06:43:30.453Z,17.54
2024-05-09T06:44:27.397Z,17.48
2024-05-09T06:45:24.374Z,17.29
2024-05-09T06:46:21.306Z,17.46
2024-05-09T06:47:18.209Z,17.46
2024-05-09T06:48:15.569Z,17.23
2024-05-09T06:49:13.746Z,17.31
2024-05-09T06:50:16.497Z,17.53
2024-05-09T06:51:20.315Z,17.79
2024-05-09T06:52:17.843Z,17.87
2024-05-09T06:53:15.751Z,17.76
2024-05-09T06:54:12.728Z,17.62
2024-05-09T06:55:09.848Z,17.73
2024-05-09T06:56:07.530Z,17.73
2024-05-09T06:57:05.314Z,17.68
2024-05-09T06:58:02.207Z,17.90
2024-05-09T06:58:59.092Z,17.55
2024-05-09T06:59:59.970Z,17.86
2024-05-09T07:00:56.893Z,17.67
2024-05-09T07:01:53.858Z,17.93
2024-05-09T07:02:50.869Z,17.95
2024-05-09T07:03:48.059Z,18.15
2024-05-09T07:04:45.255Z,17.90
2024-05-09T07:05:43.198Z,18.11
2024-05-09T07:06:40.231Z,18.26
2024-05-09T07:07:37.079Z,17.83
2024-05-09T07:08:34.331Z,17.94
2024-05-09T07:09:31.416Z,18.18
2024-05-09T07:10:34.118Z,18.19
2024-05-09T07:11:33.444Z,18.32
2024-05-09T07:12:30.732Z,18.25
2024-05-09T07:13:28.587Z,17.96
2024-05-09T07:14:25.669Z,17.95
2024-05-09T07:15:22.684Z,17.80
2024-05-09T07:16:19.579Z,17.92
2024-05-09T07:17:17.734Z,18.02
2024-05-09T07:18:17.897Z,18.12
2024-05-09T07:19:18.150Z,17.78
2024-05-09T07:20:23.488Z,17.55
2024-05-09T07:21:28.929Z,17.86
2024-05-09T07:22:25.853Z,17.58
2024-05-09T07:23:22.794Z,17.75
2024-05-09T07:24:19.687Z,17.64
2024-05-09T07:25:16.637Z,17.56
2024-05-09T07:26:13.839Z,17.66
2024-05-09T07:27:10.758Z,18.08
2024-05-09T07:28:18.536Z,17.37
2024-05-09T07:29:15.583Z,17.27
2024-05-09T07:30:16.659Z,17.34
2024-05-09T07:31:20.087Z,17.72
2024-05-09T07:32:17.106Z,17.62
2024-05-09T07:33:19.566Z,17.88
2024-05-09T07:34:17.751Z,17.70
2024-05-09T07:35:14.943Z,17.97
2024-05-09T07:36:11.924Z,17.78
2024-05-09T07:37:12.804Z,17.88
2024-05-09T07:38:09.841Z,17.83
2024-05-09T07:39:06.836Z,18.18
2024-05-09T07:40:05.823Z,18.29
2024-05-09T07:41:02.855Z,18.17
2024-05-09T07:42:02.625Z,18.32
2024-05-09T07:42:59.489Z,18.30
2024-05-09T07:43:56.413Z,18.07
2024-05-09T07:44:53.287Z,18.14
2024-05-09T07:45:54.085Z,18.21
2024-05-09T07:48:13.650Z,18.18
2024-05-09T07:49:44.798Z,18.31
2024-05-09T07:53:08.318Z,18.39
2024-05-09T07:53:34.650Z,18.66
2024-05-09T07:54:04.758Z,18.64
2024-05-09T07:55:02.457Z,18.51
2024-05-09T07:55:59.759Z,18.66
2024-05-09T07:56:56.904Z,18.28
2024-05-09T07:57:53.932Z,18.02
2024-05-09T07:58:55.751Z,17.63
2024-05-09T07:59:52.857Z,17.65
2024-05-09T08:00:52.754Z,17.66
2024-05-09T08:01:50.014Z,17.70
2024-05-09T08:02:47.028Z,17.69
2024-05-09T08:03:44.928Z,18.10
2024-05-09T08:04:42.096Z,18.37
2024-05-09T08:05:39.174Z,18.44
2024-05-09T08:06:41.596Z,18.42
2024-05-09T08:07:44.500Z,17.85
2024-05-09T08:08:41.465Z,17.94
2024-05-09T08:09:40.078Z,17.77
2024-05-09T08:10:37.318Z,17.44
2024-05-09T08:11:34.477Z,17.70
2024-05-09T08:12:31.738Z,17.76
2024-05-09T08:13:28.645Z,17.92
2024-05-09T08:14:25.603Z,17.86
2024-05-09T08:15:24.705Z,17.69
2024-05-09T08:16:21.853Z,17.64
2024-05-09T08:17:18.912Z,17.87
2024-05-09T08:18:17.394Z,18.01
2024-05-09T08:19:14.495Z,18.06
2024-05-09T08:20:22.531Z,17.93
2024-05-09T08:21:23.795Z,18.11
2024-05-09T08:22:22.285Z,18.12
2024-05-09T08:23:19.334Z,17.93
2024-05-09T08:24:17.606Z,17.95
2024-05-09T08:25:14.694Z,18.05
2024-05-09T08:26:11.926Z,17.93
2024-05-09T08:27:09.045Z,18.03
2024-05-09T08:28:07.356Z,17.83
2024-05-09T08:29:04.311Z,17.63
2024-05-09T08:30:01.404Z,17.52
2024-05-09T08:31:06.969Z,17.71
2024-05-09T08:32:12.352Z,17.67
2024-05-09T08:33:10.479Z,17.82
2024-05-09T08:34:09.404Z,17.79
2024-05-09T08:35:06.832Z,17.95
2024-05-09T08:36:03.997Z,17.83
2024-05-09T08:37:13.016Z,17.90
2024-05-09T08:38:17.614Z,17.48
2024-05-09T08:39:14.726Z,17.46
2024-05-09T08:40:23.502Z,17.34
2024-05-09T08:41:25.280Z,17.62
2024-05-09T08:42:23.689Z,16.99
2024-05-09T08:43:20.861Z,16.95
2024-05-09T08:44:20.271Z,16.75
2024-05-09T08:45:17.813Z,17.07
2024-05-09T08:46:15.644Z,17.28
2024-05-09T08:47:13.383Z,17.41
2024-05-09T08:48:19.402Z,16.91
2024-05-09T08:49:16.776Z,16.88
2024-05-09T08:50:28.399Z,17.09
2024-05-09T08:51:32.855Z,17.02
2024-05-09T08:52:29.821Z,16.80
2024-05-09T08:53:26.747Z,17.04
2024-05-09T08:54:23.775Z,16.93
2024-05-09T08:55:20.844Z,16.92
2024-05-09T08:56:21.940Z,16.73
2024-05-09T08:57:22.757Z,16.90
2024-05-09T08:58:20.379Z,16.51
2024-05-09T08:59:27.966Z,16.58
2024-05-09T09:00:33.873Z,16.80
2024-05-09T09:01:38.036Z,16.44
2024-05-09T09:02:38.242Z,16.52
2024-05-09T09:03:37.723Z,16.64
2024-05-09T09:04:40.778Z,16.38
2024-05-09T09:05:40.036Z,16.30
2024-05-09T09:06:37.789Z,16.26
2024-05-09T09:07:37.956Z,16.44
2024-05-09T09:08:37.540Z,16.31
2024-05-09T09:09:43.554Z,16.51
2024-05-09T09:10:43.515Z,16.72
2024-05-09T09:11:40.531Z,16.77
2024-05-09T09:12:37.538Z,16.64
2024-05-09T09:13:34.451Z,16.74
2024-05-09T09:14:31.363Z,16.63
2024-05-09T09:15:28.337Z,16.75
2024-05-09T09:16:34.967Z,17.00
2024-05-09T09:17:32.012Z,16.59
2024-05-09T09:18:30.697Z,16.54
2024-05-09T09:19:28.149Z,16.74
2024-05-09T09:20:36.381Z,16.49
2024-05-09T09:21:34.107Z,16.67
2024-05-09T09:22:34.355Z,16.47
2024-05-09T09:23:31.345Z,16.55
2024-05-09T09:24:28.337Z,16.37
2024-05-09T09:25:25.494Z,16.42
2024-05-09T09:26:23.277Z,16.48
2024-05-09T09:27:20.166Z,16.38
2024-05-09T09:28:17.323Z,16.51
2024-05-09T09:29:19.996Z,16.75
2024-05-09T09:30:30.849Z,16.64
2024-05-09T09:31:32.433Z,16.75
2024-05-09T09:32:30.117Z,16.96
2024-05-09T09:33:31.347Z,17.11
2024-05-09T09:34:28.874Z,16.68
2024-05-09T09:35:26.992Z,16.71
2024-05-09T09:36:23.933Z,16.92
2024-05-09T09:37:28.471Z,16.74
2024-05-09T09:38:31.505Z,16.71
2024-05-09T09:39:32.110Z,16.89
2024-05-09T09:40:37.277Z,16.90
2024-05-09T09:41:39.051Z,16.87
2024-05-09T09:42:37.949Z,17.03
2024-05-09T09:43:37.122Z,17.15
2024-05-09T09:44:34.247Z,17.03
2024-05-09T09:45:36.233Z,16.91
2024-05-09T09:46:34.283Z,17.04
2024-05-09T09:47:32.271Z,16.87
2024-05-09T09:48:31.795Z,16.88
2024-05-09T09:49:32.958Z,16.90
2024-05-09T09:50:34.464Z,16.91
2024-05-09T09:51:33.411Z,16.91
2024-05-09T09:52:30.374Z,16.91
2024-05-09T09:53:32.326Z,17.12
2024-05-09T09:54:30.176Z,16.81
2024-05-09T09:55:28.542Z,16.82
2024-05-09T09:56:26.748Z,16.85
2024-05-09T09:57:24.980Z,16.83
2024-05-09T09:58:23.951Z,16.88
2024-05-09T09:59:21.943Z,16.89
2024-05-09T10:00:27.190Z,17.00
2024-05-09T10:01:29.362Z,16.98
2024-05-09T10:02:26.434Z,16.81
2024-05-09T10:03:23.463Z,17.34
2024-05-09T10:04:20.631Z,17.34
2024-05-09T10:05:17.787Z,17.16
2024-05-09T10:06:17.740Z,17.18
2024-05-09T10:07:18.625Z,16.71
2024-05-09T10:08:18.275Z,17.05
2024-05-09T10:09:18.203Z,17.11
2024-05-09T10:10:30.026Z,17.40
2024-05-09T10:11:37.007Z,17.46
2024-05-09T10:12:36.614Z,17.63
2024-05-09T10:13:35.314Z,17.15
2024-05-09T10:14:40.906Z,17.00
2024-05-09T10:15:47.185Z,17.02
2024-05-09T10:16:44.531Z,16.96
2024-05-09T10:17:51.288Z,17.44
2024-05-09T10:18:48.476Z,17.13
2024-05-09T10:19:46.270Z,17.03
2024-05-09T10:20:46.863Z,17.46
2024-05-09T10:21:47.136Z,17.71
2024-05-09T10:22:50.471Z,17.79
2024-05-09T10:23:57.823Z,17.50
2024-05-09T10:25:05.380Z,17.78
2024-05-09T10:26:05.383Z,17.74
2024-05-09T10:27:04.293Z,17.64
2024-05-09T10:28:03.206Z,17.94
2024-05-09T10:29:03.473Z,17.80
2024-05-09T10:30:06.757Z,17.84
2024-05-09T10:31:13.304Z,17.97
2024-05-09T10:32:11.874Z,17.53
2024-05-09T10:33:11.335Z,17.52
2024-05-09T10:34:09.762Z,17.30
2024-05-09T10:35:15.142Z,17.12
2024-05-09T10:36:25.634Z,17.77
2024-05-09T10:37:23.146Z,17.83
2024-05-09T10:38:20.393Z,17.97
2024-05-09T10:39:19.227Z,17.70
2024-05-09T10:40:23.505Z,17.64
2024-05-09T10:41:26.028Z,17.36
2024-05-09T10:42:24.364Z,17.65
2024-05-09T10:43:23.271Z,17.74
2024-05-09T10:44:21.753Z,17.59
2024-05-09T10:45:18.664Z,17.53
2024-05-09T10:46:16.386Z,17.63
2024-05-09T10:47:13.602Z,17.27
2024-05-09T10:48:10.692Z,17.47
2024-05-09T10:49:08.823Z,17.21
2024-05-09T10:50:12.741Z,17.26
2024-05-09T10:51:16.726Z,17.27
2024-05-09T10:52:13.716Z,17.19
2024-05-09T10:53:10.622Z,17.42
2024-05-09T10:54:07.936Z,17.12
2024-05-09T10:55:14.590Z,17.37
2024-05-09T10:56:23.669Z,17.51
2024-05-09T10:57:23.356Z,17.42
2024-05-09T10:58:20.448Z,17.52
2024-05-09T10:59:17.388Z,17.30
2024-05-09T11:00:23.238Z,16.97
2024-05-09T11:01:28.138Z,17.27
2024-05-09T11:02:25.557Z,17.51
2024-05-09T11:03:26.411Z,17.58
2024-05-09T11:04:23.517Z,17.96
2024-05-09T11:05:21.676Z,17.68
2024-05-09T11:06:18.789Z,17.82
2024-05-09T11:07:19.079Z,17.63
2024-05-09T11:08:17.091Z,17.56
2024-05-09T11:09:14.849Z,17.55
2024-05-09T11:10:14.573Z,17.66
2024-05-09T11:11:12.798Z,17.63
2024-05-09T11:12:10.750Z,17.89
2024-05-09T11:13:07.791Z,17.66
2024-05-09T11:14:13.767Z,18.13
2024-05-09T11:15:10.691Z,18.52
2024-05-09T11:16:20.612Z,18.45
2024-05-09T11:17:17.993Z,18.31
2024-05-09T11:18:27.206Z,18.37
2024-05-09T11:19:30.989Z,18.12
2024-05-09T11:20:38.980Z,18.24
2024-05-09T11:21:36.085Z,18.24
2024-05-09T11:22:33.615Z,18.54
2024-05-09T11:23:30.968Z,18.45
2024-05-09T11:24:29.909Z,18.68
2024-05-09T11:25:26.880Z,18.23
2024-05-09T11:26:25.421Z,18.58
2024-05-09T11:27:23.766Z,18.30
2024-05-09T11:28:21.756Z,18.49
2024-05-09T11:29:19.659Z,18.20
2024-05-09T11:31:20.836Z,18.61
2024-05-09T11:32:29.547Z,18.86
2024-05-09T11:33:28.993Z,18.89
2024-05-09T11:34:26.039Z,19.12
2024-05-09T11:35:23.014Z,19.24
2024-05-09T11:36:20.053Z,19.27
2024-05-09T11:37:17.048Z,18.92
2024-05-09T11:38:14.189Z,19.02
2024-05-09T11:39:11.830Z,18.99
2024-05-09T11:40:13.952Z,18.40
2024-05-09T11:41:18.928Z,19.15
2024-05-09T11:42:17.600Z,19.12
2024-05-09T11:43:14.467Z,19.29
2024-05-09T11:44:11.571Z,18.85
2024-05-09T11:45:08.592Z,19.11
2024-05-09T11:46:05.827Z,19.10
2024-05-09T11:47:04.867Z,19.33
2024-05-09T11:48:02.266Z,19.45
2024-05-09T11:48:59.952Z,19.35
2024-05-09T11:49:57.286Z,19.22
2024-05-09T11:50:55.337Z,18.88
2024-05-09T11:51:52.421Z,18.97
2024-05-09T11:52:49.350Z,19.39
2024-05-09T11:53:46.195Z,19.18
2024-05-09T11:54:43.134Z,19.46
2024-05-09T11:55:39.983Z,19.81
2024-05-09T11:56:37.181Z,19.03
2024-05-09T11:57:34.641Z,19.02
2024-05-09T11:58:34.935Z,19.25
2024-05-09T11:59:31.886Z,19.22
2024-05-09T12:00:36.097Z,19.65
2024-05-09T12:01:34.314Z,19.89
2024-05-09T12:02:31.258Z,19.62
2024-05-09T12:03:30.108Z,19.61
2024-05-09T12:04:27.269Z,19.57
2024-05-09T12:05:25.094Z,19.73
2024-05-09T12:06:22.044Z,18.77
2024-05-09T12:07:19.186Z,18.92
2024-05-09T12:08:16.559Z,19.00
2024-05-09T12:09:13.661Z,19.08
2024-05-09T12:10:16.581Z,18.92
2024-05-09T12:11:16.864Z,19.28
2024-05-09T12:12:13.984Z,19.24
2024-05-09T12:13:11.055Z,19.40
2024-05-09T12:14:08.385Z,19.33
2024-05-09T12:15:05.516Z,19.65
2024-05-09T12:16:02.634Z,19.15
2024-05-09T12:17:01.281Z,18.41
2024-05-09T12:18:00.241Z,18.65
2024-05-09T12:18:59.758Z,18.87
2024-05-09T12:19:56.875Z,18.65
2024-05-09T12:20:53.847Z,18.07
2024-05-09T12:21:50.845Z,18.37
2024-05-09T12:22:48.408Z,18.39
2024-05-09T12:23:45.815Z,18.67
2024-05-09T12:24:42.754Z,18.98
2024-05-09T12:25:40.135Z,18.94
2024-05-09T12:26:37.305Z,18.98
2024-05-09T12:27:36.458Z,18.89
2024-05-09T12:28:36.710Z,18.88
2024-05-09T12:29:36.157Z,19.12
2024-05-09T12:30:38.618Z,18.78
2024-05-09T12:31:40.293Z,19.02
2024-05-09T12:32:37.223Z,18.60
2024-05-09T12:33:34.297Z,18.73
2024-05-09T12:34:31.291Z,18.89
2024-05-09T12:35:28.144Z,18.95
2024-05-09T12:36:25.055Z,18.75
2024-05-09T12:37:22.045Z,19.28
2024-05-09T12:38:18.978Z,18.98
2024-05-09T12:39:15.906Z,19.37
2024-05-09T12:40:22.445Z,19.41